Time;durP1;ratioP1;P1;durP2;ratioP2;P2;SDS_P1;SDS_P2;PMS_P1;PMS_P2;Temp;Humidity;BMP_temperature;BMP_pressure;BME280_temperature;BME280_humidity;BME280_pressure;Samples;Min_cycle;Max_cycle;Signal;HPM_P1;HPM_P2
2023/01/28 00:00:55;;;;;;;1.02;1.02;;;2.70;99.90;;;;;;5057482;28;20199;-78
2023/01/28 00:03:23;;;;;;;0.70;0.50;;;2.70;99.90;;;;;;5057208;28;20214;-78
2023/01/28 00:05:50;;;;;;;0.85;0.60;;;2.70;99.90;;;;;;5056493;28;20194;-78
2023/01/28 00:08:16;;;;;;;3.42;1.00;;;2.70;99.90;;;;;;5057440;28;20278;-79
2023/01/28 00:10:43;;;;;;;2.08;1.85;;;2.70;99.90;;;;;;5059254;28;20233;-79
2023/01/28 00:13:13;;;;;;;0.50;0.40;;;2.70;99.90;;;;;;5060211;28;20218;-79
2023/01/28 00:15:40;;;;;;;0.50;0.40;;;2.70;99.90;;;;;;5059367;28;20198;-79
2023/01/28 00:18:07;;;;;;;1.05;0.95;;;2.60;99.90;;;;;;5058952;28;20289;-79
2023/01/28 00:20:35;;;;;;;0.50;0.40;;;2.60;99.90;;;;;;5057525;28;20287;-79
2023/01/28 00:23:02;;;;;;;0.68;0.68;;;2.60;99.90;;;;;;5056825;28;20305;-79
2023/01/28 00:25:29;;;;;;;1.35;0.80;;;2.60;99.90;;;;;;5057071;28;20266;-79
2023/01/28 00:27:56;;;;;;;0.60;0.50;;;2.70;99.90;;;;;;5056885;28;20698;-79
2023/01/28 00:30:23;;;;;;;0.50;0.40;;;2.70;99.90;;;;;;5057833;28;20639;-79
2023/01/28 00:32:50;;;;;;;0.85;0.85;;;2.70;99.90;;;;;;5056897;28;20219;-79
2023/01/28 00:35:17;;;;;;;0.50;0.50;;;2.50;99.90;;;;;;5057141;28;20660;-79
2023/01/28 00:37:47;;;;;;;0.50;0.50;;;2.50;99.90;;;;;;5057233;28;20234;-79
2023/01/28 00:40:14;;;;;;;0.50;0.50;;;2.60;99.90;;;;;;5056332;28;20199;-80
2023/01/28 00:42:41;;;;;;;0.60;0.60;;;2.50;99.90;;;;;;5057297;28;20591;-76
2023/01/28 00:45:08;;;;;;;0.50;0.43;;;2.60;99.90;;;;;;5057626;28;20564;-79
2023/01/28 00:47:35;;;;;;;0.50;0.40;;;2.60;99.90;;;;;;5059611;28;20656;-79
2023/01/28 00:50:02;;;;;;;0.93;0.93;;;2.60;99.90;;;;;;5058185;28;20236;-79
2023/01/28 00:52:30;;;;;;;0.50;0.50;;;2.60;99.90;;;;;;5058655;28;20246;-79
2023/01/28 00:54:58;;;;;;;0.50;0.40;;;2.50;99.90;;;;;;5057904;28;20221;-79
2023/01/28 00:57:25;;;;;;;0.60;0.50;;;2.40;99.90;;;;;;5058971;28;20234;-79
2023/01/28 00:59:52;;;;;;;0.50;0.40;;;2.40;99.90;;;;;;5058934;28;20225;-77
2023/01/28 01:02:19;;;;;;;0.50;0.40;;;2.30;99.90;;;;;;5058528;28;20220;-79
2023/01/28 01:04:53;;;;;;;0.50;0.40;;;2.40;99.90;;;;;;5058288;28;20249;-78
2023/01/28 01:07:31;;;;;;;0.50;0.40;;;2.40;99.90;;;;;;5058204;28;20179;-78
2023/01/28 01:10:00;;;;;;;0.50;0.40;;;2.40;99.90;;;;;;5057853;28;20182;-79
2023/01/28 01:12:27;;;;;;;2.15;0.68;;;2.30;99.90;;;;;;5058089;28;20305;-79
2023/01/28 01:14:54;;;;;;;0.50;0.50;;;2.30;99.90;;;;;;5058220;28;20237;-78
2023/01/28 01:17:21;;;;;;;0.50;0.50;;;2.20;99.90;;;;;;5058496;28;20202;-79
2023/01/28 01:19:48;;;;;;;0.50;0.40;;;2.10;99.90;;;;;;5058361;28;20194;-79
2023/01/28 01:22:15;;;;;;;0.60;0.60;;;2.20;99.90;;;;;;5059291;28;20630;-80
2023/01/28 01:24:42;;;;;;;0.77;0.77;;;2.20;99.90;;;;;;5061589;28;20194;-79
2023/01/28 01:27:10;;;;;;;0.60;0.60;;;2.30;99.90;;;;;;5061727;28;20202;-79
2023/01/28 01:29:38;;;;;;;0.50;0.40;;;2.30;99.90;;;;;;5061719;28;20731;-78
2023/01/28 01:32:05;;;;;;;0.50;0.40;;;2.30;99.90;;;;;;5062146;28;20237;-79
2023/01/28 01:34:32;;;;;;;0.60;0.40;;;2.20;99.90;;;;;;5062854;28;20349;-78
2023/01/28 01:36:59;;;;;;;0.90;0.80;;;2.10;99.90;;;;;;5061721;28;20253;-79
2023/01/28 01:39:26;;;;;;;0.50;0.40;;;2.10;99.90;;;;;;5062142;28;20195;-79
2023/01/28 01:41:52;;;;;;;1.40;1.30;;;2.10;99.90;;;;;;5062842;28;20282;-78
2023/01/28 01:44:59;;;;;;;0.50;0.40;;;2.20;99.90;;;;;;5062823;28;20212;-78
2023/01/28 01:47:31;;;;;;;0.50;0.50;;;2.20;99.90;;;;;;5062683;28;20194;-79
2023/01/28 01:50:00;;;;;;;0.50;0.40;;;2.20;99.90;;;;;;5061299;28;20225;-78
2023/01/28 01:52:32;;;;;;;0.50;0.45;;;2.10;99.90;;;;;;5061850;28;20684;-79
2023/01/28 01:55:02;;;;;;;0.50;0.50;;;2.10;99.90;;;;;;5062030;28;20210;-79
2023/01/28 01:57:32;;;;;;;0.90;0.80;;;2.10;99.90;;;;;;5062500;28;20282;-79
2023/01/28 02:00:05;;;;;;;1.45;1.25;;;2.10;99.90;;;;;;5061916;28;20549;-79
2023/01/28 02:02:36;;;;;;;0.50;0.40;;;2.10;99.90;;;;;;5062079;28;20211;-79
2023/01/28 02:05:04;;;;;;;0.50;0.40;;;2.10;99.90;;;;;;5061380;28;20183;-78
2023/01/28 02:07:31;;;;;;;0.50;0.40;;;2.10;99.90;;;;;;5062136;28;20286;-78
2023/01/28 02:09:58;;;;;;;2.05;1.95;;;2.20;99.90;;;;;;5062471;28;20203;-78
2023/01/28 02:12:30;;;;;;;0.50;0.40;;;2.10;99.90;;;;;;5062488;28;20649;-79
2023/01/28 02:15:02;;;;;;;0.50;0.50;;;2.10;99.90;;;;;;5061634;28;20281;-79
2023/01/28 02:17:29;;;;;;;0.50;0.40;;;2.00;99.90;;;;;;5061667;28;20270;-78
2023/01/28 02:19:59;;;;;;;0.50;0.40;;;2.00;99.90;;;;;;5061739;28;20217;-78
2023/01/28 02:22:47;;;;;;;0.95;0.95;;;1.90;99.90;;;;;;5061664;28;20222;-78
2023/01/28 02:25:53;;;;;;;0.50;0.40;;;1.90;99.90;;;;;;5061174;28;20194;-79
2023/01/28 02:28:31;;;;;;;1.35;0.80;;;1.80;99.90;;;;;;5037590;28;20222;-78
2023/01/28 02:31:05;;;;;;;1.55;1.45;;;1.90;99.90;;;;;;5061133;28;20214;-78
2023/01/28 02:33:39;;;;;;;1.67;1.58;;;1.80;99.90;;;;;;5060258;28;20301;-79
2023/01/28 02:36:16;;;;;;;0.50;0.43;;;1.80;99.90;;;;;;5061082;28;20205;-79
2023/01/28 02:38:48;;;;;;;0.50;0.40;;;1.80;99.90;;;;;;5061608;28;20224;-79
2023/01/28 02:41:21;;;;;;;4.15;3.80;;;1.80;99.90;;;;;;5060945;28;20266;-78
2023/01/28 02:43:49;;;;;;;2.03;1.92;;;1.90;99.90;;;;;;5061160;28;20306;-78
2023/01/28 02:49:09;;;;;;;0.50;0.40;;;1.80;99.90;;;;;;5060406;28;20209;-79
2023/01/28 02:52:14;;;;;;;0.50;0.40;;;1.90;99.90;;;;;;5060125;28;20195;-78
2023/01/28 02:54:47;;;;;;;1.20;1.20;;;1.90;99.90;;;;;;4978604;28;20295;-79
2023/01/28 02:57:28;;;;;;;0.50;0.40;;;1.90;99.90;;;;;;5049824;28;20194;-79
2023/01/28 03:00:04;;;;;;;1.23;1.13;;;1.80;99.90;;;;;;5059968;28;20286;-78
2023/01/28 03:02:36;;;;;;;2.80;2.60;;;1.80;99.90;;;;;;5059856;28;20214;-78
2023/01/28 03:05:07;;;;;;;0.50;0.40;;;1.80;99.90;;;;;;5059885;28;20695;-79
2023/01/28 03:07:37;;;;;;;0.50;0.50;;;1.80;99.90;;;;;;5060098;28;20230;-78
2023/01/28 03:10:06;;;;;;;0.50;0.40;;;1.70;99.90;;;;;;5060352;28;20281;-78
2023/01/28 03:37:53;;;;;;;0.50;0.40;;;1.90;99.90;;;;;;5075873;28;20181;-78
2023/01/28 03:40:20;;;;;;;0.50;0.40;;;1.90;99.90;;;;;;5071675;28;20574;-79
2023/01/28 03:42:47;;;;;;;0.50;0.40;;;1.90;99.90;;;;;;5060151;28;20309;-78
2023/01/28 03:45:14;;;;;;;3.78;3.50;;;2.00;99.90;;;;;;5058481;28;20195;-78
2023/01/28 03:47:43;;;;;;;0.50;0.50;;;2.00;99.90;;;;;;5058177;28;20281;-79
2023/01/28 03:50:11;;;;;;;0.50;0.43;;;2.00;99.90;;;;;;5059092;28;20277;-79
2023/01/28 03:52:38;;;;;;;0.50;0.40;;;2.00;99.90;;;;;;5059162;28;20310;-79
2023/01/28 03:55:12;;;;;;;2.25;1.45;;;2.00;99.90;;;;;;5058068;28;20230;-78
2023/01/28 03:57:39;;;;;;;0.50;0.50;;;2.00;99.90;;;;;;5058797;28;20545;-79
2023/01/28 04:00:09;;;;;;;1.15;1.15;;;1.90;99.90;;;;;;5058506;28;20277;-79
2023/01/28 04:02:38;;;;;;;0.50;0.40;;;1.90;99.90;;;;;;5058889;28;20299;-76
2023/01/28 04:05:11;;;;;;;0.50;0.40;;;1.90;99.90;;;;;;5058491;28;20761;-79
2023/01/28 04:07:38;;;;;;;0.50;0.43;;;1.80;99.90;;;;;;5058919;28;20234;-79
2023/01/28 04:10:07;;;;;;;0.50;0.50;;;1.80;99.90;;;;;;5059226;28;20277;-79
2023/01/28 04:12:36;;;;;;;1.45;1.45;;;1.90;99.90;;;;;;5058615;28;20215;-79
2023/01/28 04:15:14;;;;;;;0.50;0.40;;;1.80;99.90;;;;;;5058332;28;20660;-79
2023/01/28 04:17:43;;;;;;;0.50;0.40;;;1.70;99.90;;;;;;5058348;28;20232;-79
2023/01/28 04:20:13;;;;;;;1.40;1.30;;;1.70;99.90;;;;;;5057978;28;20286;-80
2023/01/28 04:22:40;;;;;;;0.50;0.40;;;1.60;99.90;;;;;;5058082;28;20210;-79
2023/01/28 04:25:07;;;;;;;0.50;0.40;;;1.70;99.90;;;;;;5056895;28;20642;-79
2023/01/28 04:27:34;;;;;;;0.50;0.40;;;1.70;99.90;;;;;;5057003;28;20201;-79
2023/01/28 04:30:01;;;;;;;0.50;0.40;;;1.80;99.90;;;;;;5056419;28;20731;-79
2023/01/28 04:32:28;;;;;;;0.50;0.50;;;1.80;99.90;;;;;;5056976;28;20250;-79
2023/01/28 04:34:54;;;;;;;0.50;0.40;;;1.70;99.90;;;;;;5057146;28;20617;-79
2023/01/28 04:37:23;;;;;;;0.50;0.40;;;1.80;99.90;;;;;;5056903;28;20198;-79
2023/01/28 04:39:49;;;;;;;4.53;3.40;;;1.90;99.90;;;;;;5057400;28;20575;-79
2023/01/28 04:42:16;;;;;;;0.50;0.40;;;1.70;99.90;;;;;;5056978;28;20221;-79
2023/01/28 04:44:43;;;;;;;0.85;0.85;;;1.60;99.90;;;;;;5057653;28;20194;-78
2023/01/28 04:47:10;;;;;;;3.47;1.77;;;1.60;99.90;;;;;;5056714;28;20198;-78
2023/01/28 04:49:37;;;;;;;0.50;0.40;;;1.60;99.90;;;;;;5057599;28;20221;-79
2023/01/28 04:52:04;;;;;;;0.60;0.60;;;1.60;99.90;;;;;;5055287;28;20214;-78
2023/01/28 04:54:32;;;;;;;0.50;0.50;;;1.50;99.90;;;;;;5055887;28;20219;-79
2023/01/28 04:56:59;;;;;;;0.50;0.43;;;1.60;99.90;;;;;;5054743;28;20281;-79
2023/01/28 04:59:26;;;;;;;0.50;0.50;;;1.60;99.90;;;;;;5060653;28;20221;-78
2023/01/28 05:01:52;;;;;;;0.50;0.40;;;1.60;99.90;;;;;;5060335;28;20388;-79
2023/01/28 05:04:19;;;;;;;0.60;0.50;;;1.60;99.90;;;;;;5060300;28;20282;-78
2023/01/28 05:06:46;;;;;;;0.50;0.40;;;1.60;99.90;;;;;;5060722;28;20281;-78
2023/01/28 05:09:13;;;;;;;0.50;0.40;;;1.60;99.90;;;;;;5060229;28;20202;-78
2023/01/28 05:11:41;;;;;;;0.50;0.40;;;1.60;99.90;;;;;;5060694;28;20203;-79
2023/01/28 05:14:08;;;;;;;0.82;0.70;;;1.60;99.90;;;;;;5060763;28;20210;-78
2023/01/28 05:16:35;;;;;;;1.17;1.17;;;1.50;99.90;;;;;;5061127;28;20189;-79
2023/01/28 05:19:02;;;;;;;1.33;1.23;;;1.50;99.90;;;;;;5069488;28;20198;-79
2023/01/28 05:21:29;;;;;;;0.50;0.40;;;1.50;99.90;;;;;;5074484;28;20262;-79
2023/01/28 05:23:56;;;;;;;0.85;0.85;;;1.50;99.90;;;;;;5074252;28;20802;-78
2023/01/28 05:26:23;;;;;;;0.90;0.90;;;1.50;99.90;;;;;;5065540;28;20294;-79
2023/01/28 05:28:51;;;;;;;2.90;2.05;;;1.50;99.90;;;;;;5058948;28;20301;-78
2023/01/28 05:31:18;;;;;;;5.45;1.73;;;1.50;99.90;;;;;;5059513;28;20285;-78
2023/01/28 05:33:45;;;;;;;0.50;0.40;;;1.50;99.90;;;;;;5059190;28;20281;-76
2023/01/28 05:36:11;;;;;;;0.50;0.40;;;1.40;99.90;;;;;;5059234;28;20236;-79
2023/01/28 05:38:38;;;;;;;0.50;0.50;;;1.40;99.90;;;;;;5058787;28;20537;-78
2023/01/28 05:41:05;;;;;;;2.40;2.30;;;1.40;99.90;;;;;;5058842;28;20226;-78
2023/01/28 05:43:32;;;;;;;0.50;0.50;;;1.30;99.90;;;;;;5058794;28;20622;-77
2023/01/28 05:46:00;;;;;;;0.88;0.88;;;1.30;99.90;;;;;;5058553;28;20194;-78
2023/01/28 05:48:27;;;;;;;0.50;0.50;;;1.30;99.90;;;;;;5058293;28;20286;-78
2023/01/28 05:50:54;;;;;;;0.50;0.40;;;1.30;99.90;;;;;;5059350;28;20199;-79
2023/01/28 05:53:21;;;;;;;1.02;1.02;;;1.30;99.90;;;;;;5059543;28;20222;-79
2023/01/28 05:55:49;;;;;;;0.50;0.40;;;1.20;99.90;;;;;;5060234;28;20658;-77
2023/01/28 05:58:16;;;;;;;0.60;0.60;;;1.20;99.90;;;;;;5060527;28;20199;-79
2023/01/28 06:00:43;;;;;;;0.50;0.50;;;1.30;99.90;;;;;;5061495;28;20739;-79
2023/01/28 06:03:11;;;;;;;0.50;0.40;;;1.40;99.90;;;;;;5059937;28;20210;-79
2023/01/28 06:05:38;;;;;;;0.50;0.50;;;1.40;99.90;;;;;;5060089;28;20289;-79
2023/01/28 06:08:05;;;;;;;0.70;0.70;;;1.40;99.90;;;;;;5060866;28;20744;-79
2023/01/28 06:10:32;;;;;;;0.50;0.40;;;1.50;99.90;;;;;;5056664;28;20190;-79
2023/01/28 06:13:00;;;;;;;0.50;0.50;;;1.40;99.90;;;;;;5057284;28;20242;-80
2023/01/28 06:15:26;;;;;;;0.50;0.50;;;1.40;99.90;;;;;;5056731;28;20579;-80
2023/01/28 06:17:53;;;;;;;0.50;0.50;;;1.40;99.90;;;;;;5056679;28;20225;-79
2023/01/28 06:20:21;;;;;;;0.50;0.50;;;1.40;99.90;;;;;;5056918;28;20544;-80
2023/01/28 06:22:50;;;;;;;0.50;0.40;;;1.50;99.90;;;;;;5057043;28;20219;-79
2023/01/28 06:25:17;;;;;;;1.35;1.25;;;1.40;99.90;;;;;;5056903;28;20202;-79
2023/01/28 06:27:44;;;;;;;0.50;0.40;;;1.50;99.90;;;;;;5056589;28;20450;-79
2023/01/28 06:30:11;;;;;;;0.50;0.50;;;1.50;99.90;;;;;;5056251;28;20699;-79
2023/01/28 06:32:38;;;;;;;0.50;0.50;;;1.50;99.90;;;;;;5056401;28;20311;-81
2023/01/28 06:35:06;;;;;;;1.55;0.80;;;1.50;99.90;;;;;;5056552;28;20214;-80
2023/01/28 06:37:35;;;;;;;1.42;1.40;;;1.50;99.90;;;;;;5057234;28;20639;-80
2023/01/28 06:40:02;;;;;;;0.60;0.60;;;1.40;99.90;;;;;;5057054;28;20194;-79
2023/01/28 06:42:28;;;;;;;1.65;1.55;;;1.30;99.90;;;;;;5058023;28;20237;-80
2023/01/28 06:44:55;;;;;;;0.50;0.40;;;1.30;99.90;;;;;;5065889;28;20194;-80
2023/01/28 06:47:22;;;;;;;1.25;1.25;;;1.30;99.90;;;;;;5058149;28;20198;-80
2023/01/28 06:49:49;;;;;;;0.70;0.70;;;1.30;99.90;;;;;;5056267;28;20194;-79
2023/01/28 06:52:16;;;;;;;0.70;0.70;;;1.40;99.90;;;;;;5056394;28;20253;-79
2023/01/28 06:54:44;;;;;;;0.52;0.52;;;1.40;99.90;;;;;;5056110;28;20659;-79
2023/01/28 06:57:11;;;;;;;1.15;1.15;;;1.40;99.90;;;;;;5056923;28;20222;-79
2023/01/28 06:59:37;;;;;;;1.23;1.23;;;1.30;99.90;;;;;;5055691;28;20210;-79
2023/01/28 07:02:04;;;;;;;0.50;0.50;;;1.30;99.90;;;;;;5058800;28;20233;-80
2023/01/28 07:04:31;;;;;;;0.50;0.50;;;1.30;99.90;;;;;;5064922;28;20190;-78
2023/01/28 07:06:58;;;;;;;0.50;0.50;;;1.20;99.90;;;;;;5068642;28;20289;-77
2023/01/28 07:09:25;;;;;;;0.50;0.40;;;1.30;99.90;;;;;;5069167;28;20294;-79
2023/01/28 07:11:53;;;;;;;0.85;0.80;;;1.30;99.90;;;;;;5072364;28;20289;-79
2023/01/28 07:14:20;;;;;;;0.50;0.40;;;1.30;99.90;;;;;;5076249;28;20209;-83
2023/01/28 07:16:47;;;;;;;0.50;0.40;;;1.20;99.90;;;;;;5077959;28;20198;-84
2023/01/28 07:19:14;;;;;;;1.40;1.23;;;1.20;99.90;;;;;;5077320;28;20187;-80
2023/01/28 07:21:41;;;;;;;1.27;1.17;;;1.20;99.90;;;;;;5068529;28;20194;-82
2023/01/28 07:24:08;;;;;;;0.50;0.40;;;1.20;99.90;;;;;;5075602;28;20171;-78
2023/01/28 07:26:34;;;;;;;0.93;0.70;;;1.20;99.90;;;;;;5076948;28;20198;-83
2023/01/28 07:29:03;;;;;;;1.45;1.23;;;1.30;99.90;;;;;;5074203;28;20281;-82
2023/01/28 07:31:30;;;;;;;0.50;0.50;;;1.30;99.90;;;;;;5076030;28;20225;-82
2023/01/28 07:33:56;;;;;;;0.50;0.50;;;1.20;99.90;;;;;;5074599;28;20313;-83
2023/01/28 07:36:23;;;;;;;3.70;1.48;;;1.10;99.90;;;;;;5076954;28;20194;-83
2023/01/28 07:38:50;;;;;;;0.60;0.60;;;1.00;99.90;;;;;;5068893;28;20195;-81
2023/01/28 07:41:17;;;;;;;0.50;0.40;;;0.90;99.90;;;;;;5067989;28;20201;-80
2023/01/28 07:43:44;;;;;;;0.50;0.40;;;0.90;99.90;;;;;;5057490;28;20294;-81
2023/01/28 07:46:12;;;;;;;0.50;0.40;;;0.90;99.90;;;;;;5056699;28;20699;-80
2023/01/28 07:48:39;;;;;;;0.85;0.85;;;1.00;99.90;;;;;;5055335;28;20194;-79
2023/01/28 07:51:06;;;;;;;0.70;0.70;;;1.00;99.90;;;;;;5057485;28;20563;-78
2023/01/28 07:53:33;;;;;;;0.82;0.82;;;1.10;99.90;;;;;;5056664;28;20277;-79
2023/01/28 07:56:01;;;;;;;1.17;1.17;;;1.10;99.90;;;;;;5056245;28;20232;-82
2023/01/28 07:58:28;;;;;;;2.05;1.95;;;1.10;99.90;;;;;;5070161;28;20211;-83
2023/01/28 08:00:57;;;;;;;0.50;0.40;;;1.10;99.90;;;;;;5074405;28;20226;-81
2023/01/28 08:03:26;;;;;;;1.70;1.55;;;1.10;99.90;;;;;;5077051;28;20218;-82
2023/01/28 08:05:56;;;;;;;0.50;0.50;;;1.10;99.90;;;;;;5075011;28;20194;-81
2023/01/28 08:08:23;;;;;;;1.00;0.88;;;1.20;99.90;;;;;;5076672;28;20194;-82
2023/01/28 08:10:51;;;;;;;0.50;0.40;;;1.20;99.90;;;;;;5076294;28;20179;-81
2023/01/28 08:13:18;;;;;;;0.50;0.40;;;1.20;99.90;;;;;;5067204;28;20210;-80
2023/01/28 08:15:46;;;;;;;0.50;0.50;;;1.20;99.90;;;;;;5056836;28;20205;-81
2023/01/28 08:18:15;;;;;;;0.50;0.50;;;1.20;99.90;;;;;;5054471;28;20204;-81
2023/01/28 08:20:46;;;;;;;0.50;0.40;;;1.30;99.90;;;;;;5053985;28;20191;-79
2023/01/28 08:23:14;;;;;;;0.60;0.50;;;1.40;99.90;;;;;;5054363;28;20344;-81
2023/01/28 08:25:41;;;;;;;0.50;0.40;;;1.50;99.90;;;;;;5054408;28;20194;-81
2023/01/28 08:28:09;;;;;;;0.50;0.40;;;1.60;99.90;;;;;;5053847;28;20201;-81
2023/01/28 08:30:37;;;;;;;2.75;1.17;;;1.60;99.90;;;;;;5054439;28;20198;-80
2023/01/28 08:33:05;;;;;;;0.50;0.50;;;1.70;99.90;;;;;;5053906;28;20253;-79
2023/01/28 08:35:33;;;;;;;0.50;0.40;;;1.80;99.90;;;;;;5057919;28;20215;-79
2023/01/28 08:38:02;;;;;;;1.55;0.98;;;2.00;99.90;;;;;;5063334;28;20199;-80
2023/01/28 08:40:29;;;;;;;0.65;0.65;;;2.00;99.90;;;;;;5057616;28;20282;-82
2023/01/28 08:42:57;;;;;;;0.50;0.50;;;2.10;99.90;;;;;;5057080;28;20268;-81
2023/01/28 08:45:26;;;;;;;0.50;0.40;;;2.10;99.90;;;;;;5054514;28;20269;-81
2023/01/28 08:47:55;;;;;;;0.88;0.88;;;2.00;99.90;;;;;;5054684;28;20229;-78
2023/01/28 08:50:24;;;;;;;0.60;0.60;;;2.00;99.90;;;;;;5054986;28;20201;-80
2023/01/28 08:52:56;;;;;;;0.98;0.98;;;2.10;99.90;;;;;;5055505;28;20260;-79
2023/01/28 08:55:25;;;;;;;0.70;0.70;;;2.10;99.90;;;;;;5053416;28;20203;-80
2023/01/28 08:57:52;;;;;;;0.50;0.50;;;1.90;99.90;;;;;;5054274;28;20257;-78
2023/01/28 09:00:19;;;;;;;2.55;1.73;;;1.90;99.90;;;;;;5054041;28;20583;-81
2023/01/28 09:02:46;;;;;;;4.13;2.15;;;2.00;99.90;;;;;;5053814;28;20210;-80
2023/01/28 09:05:13;;;;;;;0.50;0.40;;;1.90;99.90;;;;;;5053730;28;20286;-82
2023/01/28 09:07:40;;;;;;;0.50;0.50;;;1.90;99.90;;;;;;5053674;28;20195;-81
2023/01/28 09:10:08;;;;;;;0.50;0.50;;;1.90;99.90;;;;;;5054560;28;20297;-81
2023/01/28 09:12:36;;;;;;;0.50;0.43;;;1.80;99.90;;;;;;5057215;28;20214;-81
2023/01/28 09:15:03;;;;;;;1.45;1.35;;;1.90;99.90;;;;;;5073134;28;20225;-81
2023/01/28 09:17:30;;;;;;;0.98;0.98;;;1.90;99.90;;;;;;5073734;28;20189;-81
2023/01/28 09:19:57;;;;;;;0.80;0.80;;;2.00;99.90;;;;;;5074005;28;20231;-79
2023/01/28 09:22:24;;;;;;;0.85;0.85;;;2.10;99.90;;;;;;5073983;28;20203;-81
2023/01/28 09:24:51;;;;;;;0.50;0.40;;;2.00;99.90;;;;;;5073695;28;20202;-80
2023/01/28 09:27:18;;;;;;;5.05;4.78;;;2.00;99.90;;;;;;5073027;28;20206;-79
2023/01/28 09:29:47;;;;;;;0.50;0.40;;;1.90;99.90;;;;;;5074301;28;20255;-79
2023/01/28 09:32:13;;;;;;;0.50;0.40;;;2.00;99.90;;;;;;5065670;28;20345;-82
2023/01/28 09:34:40;;;;;;;0.50;0.50;;;2.10;99.90;;;;;;5054426;28;20245;-82
2023/01/28 09:37:07;;;;;;;0.60;0.60;;;2.30;99.90;;;;;;5054024;28;20313;-81
2023/01/28 09:39:34;;;;;;;1.63;1.52;;;2.30;99.90;;;;;;5054181;28;20222;-82
2023/01/28 09:42:17;;;;;;;0.50;0.50;;;2.20;99.90;;;;;;5053435;28;20254;-81
2023/01/28 09:45:00;;;;;;;0.50;0.40;;;2.20;99.90;;;;;;5054988;28;20270;-82
2023/01/28 09:47:30;;;;;;;0.50;0.50;;;2.20;99.90;;;;;;5056813;28;20202;-82
2023/01/28 09:50:02;;;;;;;3.75;2.55;;;2.30;99.90;;;;;;5057894;28;20273;-80
2023/01/28 09:52:34;;;;;;;0.50;0.50;;;2.20;99.90;;;;;;5057682;28;20218;-81
2023/01/28 09:55:04;;;;;;;0.50;0.50;;;2.20;99.90;;;;;;5056447;28;20209;-82
2023/01/28 09:57:38;;;;;;;0.85;0.85;;;2.20;99.90;;;;;;5057943;28;20201;-81
2023/01/28 10:00:14;;;;;;;0.50;0.50;;;2.20;99.90;;;;;;5058389;28;20722;-81
2023/01/28 10:02:58;;;;;;;0.50;0.50;;;2.20;99.90;;;;;;5057788;28;20237;-81
2023/01/28 10:05:32;;;;;;;1.02;0.93;;;2.30;99.90;;;;;;5057442;28;20171;-81
2023/01/28 10:08:10;;;;;;;1.42;1.33;;;2.40;99.90;;;;;;5058806;28;20194;-81
2023/01/28 10:10:44;;;;;;;0.50;0.40;;;2.50;99.90;;;;;;5059224;28;20205;-81
2023/01/28 10:13:25;;;;;;;1.83;1.73;;;2.60;99.90;;;;;;5058145;28;20326;-79
2023/01/28 10:16:08;;;;;;;0.65;0.65;;;2.60;99.90;;;;;;5057664;28;20301;-80
2023/01/28 10:18:39;;;;;;;0.77;0.77;;;2.50;99.90;;;;;;5057830;28;20175;-79
2023/01/28 10:21:11;;;;;;;1.00;0.90;;;2.40;99.90;;;;;;5058798;28;20198;-79
2023/01/28 10:23:48;;;;;;;1.08;1.08;;;2.50;99.90;;;;;;5058947;28;20286;-81
2023/01/28 10:26:22;;;;;;;0.50;0.50;;;2.60;99.90;;;;;;5058292;28;20171;-80
2023/01/28 10:28:54;;;;;;;0.50;0.43;;;2.80;99.90;;;;;;5056896;28;20190;-81
2023/01/28 10:31:24;;;;;;;4.00;3.55;;;2.90;99.90;;;;;;5057952;28;20201;-80
2023/01/28 10:33:51;;;;;;;4.82;1.98;;;2.80;99.90;;;;;;5055613;28;20253;-80
2023/01/28 10:36:18;;;;;;;4.00;1.45;;;2.70;99.90;;;;;;5056106;28;20282;-81
2023/01/28 10:38:45;;;;;;;0.50;0.40;;;2.60;99.90;;;;;;5056425;28;20640;-80
2023/01/28 10:41:20;;;;;;;1.50;1.40;;;2.60;99.90;;;;;;5063027;28;20253;-79
2023/01/28 10:43:49;;;;;;;1.95;1.55;;;2.90;99.90;;;;;;5059306;28;20560;-76
2023/01/28 10:46:19;;;;;;;0.70;0.70;;;3.10;99.90;;;;;;5059733;28;20622;-81
2023/01/28 10:48:55;;;;;;;0.50;0.40;;;3.10;99.90;;;;;;5060135;28;20262;-81
2023/01/28 10:51:31;;;;;;;0.50;0.50;;;3.10;99.90;;;;;;5060145;28;20183;-80
2023/01/28 10:53:58;;;;;;;0.50;0.50;;;3.20;99.90;;;;;;5059202;28;20225;-79
2023/01/28 10:56:27;;;;;;;9.35;2.25;;;3.30;99.90;;;;;;5058235;28;20715;-79
2023/01/28 10:58:59;;;;;;;1.33;1.33;;;3.30;99.90;;;;;;5059339;28;20548;-79
2023/01/28 11:01:37;;;;;;;4.88;2.67;;;3.30;99.90;;;;;;5060367;28;20612;-79
2023/01/28 11:04:06;;;;;;;2.35;1.25;;;3.10;99.90;;;;;;5058811;28;20278;-80
2023/01/28 11:06:33;;;;;;;0.50;0.50;;;3.00;99.90;;;;;;5057370;28;20265;-79
2023/01/28 11:09:00;;;;;;;0.50;0.40;;;2.90;99.90;;;;;;5059784;28;20190;-79
2023/01/28 11:11:28;;;;;;;0.50;0.40;;;3.00;99.90;;;;;;5059586;28;20199;-80
2023/01/28 11:13:57;;;;;;;0.80;0.80;;;2.90;99.90;;;;;;5059053;28;20215;-80
2023/01/28 11:16:26;;;;;;;0.50;0.40;;;2.80;99.90;;;;;;5058068;28;20309;-80
2023/01/28 11:18:55;;;;;;;3.88;2.45;;;2.70;99.90;;;;;;5058504;28;20201;-80
2023/01/28 11:21:26;;;;;;;0.50;0.40;;;2.70;99.90;;;;;;5058022;28;20289;-78
2023/01/28 11:23:56;;;;;;;0.55;0.55;;;2.60;99.90;;;;;;5058902;28;20229;-80
2023/01/28 11:26:25;;;;;;;1.15;0.73;;;2.50;99.90;;;;;;5057023;28;20216;-80
2023/01/28 11:28:52;;;;;;;0.50;0.40;;;2.50;99.90;;;;;;5057590;28;20608;-80
2023/01/28 11:31:22;;;;;;;0.98;0.98;;;2.50;99.90;;;;;;5058399;28;20258;-80
2023/01/28 11:33:52;;;;;;;0.50;0.50;;;2.60;99.90;;;;;;5058227;28;20260;-81
2023/01/28 11:36:22;;;;;;;2.05;1.67;;;2.50;99.90;;;;;;5057168;28;20211;-81
2023/01/28 11:38:53;;;;;;;0.60;0.60;;;2.60;99.90;;;;;;5058921;28;20194;-81
2023/01/28 11:41:26;;;;;;;5.57;3.80;;;2.60;99.90;;;;;;5058025;28;20226;-81
2023/01/28 11:43:54;;;;;;;0.75;0.75;;;2.60;99.90;;;;;;5058251;28;20218;-81
2023/01/28 11:46:45;;;;;;;1.95;1.85;;;2.70;99.90;;;;;;5065806;28;20198;-82
2023/01/28 11:49:23;;;;;;;1.90;1.80;;;2.80;99.90;;;;;;5076173;28;20182;-81
2023/01/28 11:51:58;;;;;;;1.42;1.42;;;2.90;99.90;;;;;;5076005;28;20209;-82
2023/01/28 11:54:40;;;;;;;0.50;0.40;;;3.00;99.90;;;;;;5065868;28;20277;-80
2023/01/28 11:57:22;;;;;;;1.08;1.08;;;3.00;99.90;;;;;;5056950;28;20191;-80
2023/01/28 12:00:26;;;;;;;2.15;2.05;;;3.10;99.90;;;;;;5065880;28;20209;-80
2023/01/28 12:02:59;;;;;;;2.83;1.50;;;2.70;99.90;;;;;;5066672;28;20249;-80
2023/01/28 12:05:46;;;;;;;0.50;0.50;;;2.70;99.90;;;;;;5060599;28;20198;-80
2023/01/28 12:08:22;;;;;;;0.55;0.52;;;2.70;99.90;;;;;;5061229;28;20190;-81
2023/01/28 12:11:01;;;;;;;1.77;1.65;;;2.70;99.90;;;;;;5056261;28;20397;-80
2023/01/28 12:13:39;;;;;;;7.18;4.20;;;2.80;99.90;;;;;;5056524;28;20308;-79
2023/01/28 12:16:22;;;;;;;0.50;0.50;;;2.80;99.90;;;;;;5055959;28;20209;-80
2023/01/28 12:19:15;;;;;;;0.98;0.98;;;2.80;99.90;;;;;;5055939;28;20190;-79
2023/01/28 12:21:57;;;;;;;3.83;2.70;;;2.90;99.90;;;;;;5054541;28;20190;-80
2023/01/28 12:24:39;;;;;;;2.97;2.88;;;3.10;99.90;;;;;;5054382;28;20230;-80
2023/01/28 12:27:16;;;;;;;0.52;0.50;;;3.20;99.90;;;;;;5059684;28;20277;-79
2023/01/28 12:29:51;;;;;;;1.13;1.13;;;3.30;99.90;;;;;;5056227;28;20664;-79
2023/01/28 12:32:38;;;;;;;0.50;0.40;;;3.30;99.90;;;;;;5053594;28;20222;-81
2023/01/28 12:35:49;;;;;;;0.50;0.50;;;3.60;99.90;;;;;;5064091;28;20210;-82
2023/01/28 12:38:28;;;;;;;0.73;0.68;;;4.00;99.90;;;;;;4977239;28;20203;-80
2023/01/28 12:40:59;;;;;;;0.50;0.50;;;4.10;99.90;;;;;;4973106;28;20570;-80
2023/01/28 12:43:43;;;;;;;0.50;0.50;;;4.40;99.90;;;;;;4982523;28;20244;-80
2023/01/28 12:46:17;;;;;;;0.50;0.50;;;4.70;99.90;;;;;;4973610;28;20659;-81
2023/01/28 12:48:49;;;;;;;1.23;0.73;;;4.50;99.90;;;;;;4973110;28;20204;-81
2023/01/28 12:51:19;;;;;;;4.00;1.55;;;4.00;99.90;;;;;;4980881;28;20310;-82
2023/01/28 12:53:51;;;;;;;1.95;1.00;;;3.80;99.90;;;;;;4982511;28;20252;-80
2023/01/28 12:56:19;;;;;;;6.63;4.32;;;3.50;99.90;;;;;;4973442;28;20223;-81
2023/01/28 12:58:55;;;;;;;0.50;0.40;;;3.50;99.90;;;;;;4980253;28;20265;-81
2023/01/28 13:01:26;;;;;;;3.20;3.00;;;3.60;99.90;;;;;;4982997;28;20255;-80
2023/01/28 13:03:57;;;;;;;4.63;1.52;;;3.60;99.90;;;;;;4981243;28;20320;-80
2023/01/28 13:06:29;;;;;;;3.70;1.73;;;3.40;99.90;;;;;;4977805;28;20201;-80
2023/01/28 13:09:01;;;;;;;0.50;0.50;;;3.60;99.90;;;;;;5015526;28;20214;-78
2023/01/28 13:11:35;;;;;;;0.50;0.50;;;3.70;99.90;;;;;;5056833;28;20242;-80
2023/01/28 13:14:04;;;;;;;0.50;0.40;;;3.70;99.90;;;;;;5054807;28;20221;-81
2023/01/28 13:16:31;;;;;;;0.50;0.43;;;3.80;99.90;;;;;;5063140;28;20207;-81
2023/01/28 13:19:07;;;;;;;0.50;0.40;;;3.90;99.90;;;;;;5061872;28;20205;-80
2023/01/28 13:21:36;;;;;;;0.50;0.40;;;3.90;99.90;;;;;;5065668;28;20198;-80
2023/01/28 13:24:19;;;;;;;0.50;0.50;;;3.80;99.90;;;;;;5058025;28;20310;-81
2023/01/28 13:26:48;;;;;;;0.50;0.43;;;3.90;99.90;;;;;;5059706;28;20221;-80
2023/01/28 13:29:28;;;;;;;0.60;0.60;;;4.30;99.90;;;;;;5064553;28;20289;-81
2023/01/28 13:31:57;;;;;;;0.50;0.40;;;4.40;99.90;;;;;;5061516;28;20230;-81
2023/01/28 13:34:32;;;;;;;0.50;0.40;;;4.50;99.90;;;;;;5066023;28;20183;-80
2023/01/28 13:37:03;;;;;;;2.15;1.95;;;4.50;99.90;;;;;;5057973;28;20564;-81
2023/01/28 13:39:33;;;;;;;0.50;0.50;;;4.70;99.90;;;;;;5058516;28;20606;-79
2023/01/28 13:42:20;;;;;;;0.60;0.60;;;4.80;99.90;;;;;;5057608;28;20194;-81